sensor_id;sensor_type;location;lat;lon;timestamp;P1;durP1;ratioP1;P2;durP2;ratioP2
45863;SDS011;31579;52.354;16.974;2023-06-14T00:01:03;11.60;;;8.80;;
45863;SDS011;31579;52.354;16.974;2023-06-14T00:06:03;11.60;;;8.80;;
45863;SDS011;31579;52.354;16.974;2023-06-14T00:11:05;13.20;;;9.00;;
45863;SDS011;31579;52.354;16.974;2023-06-14T00:13:17;13.20;;;9.00;;
45863;SDS011;31579;52.354;16.974;2023-06-14T00:18:15;11.00;;;8.10;;
45863;SDS011;31579;52.354;16.974;2023-06-14T00:23:15;11.00;;;8.10;;
45863;SDS011;31579;52.354;16.974;2023-06-14T00:28:15;9.70;;;7.90;;
45863;SDS011;31579;52.354;16.974;2023-06-14T00:33:15;9.70;;;7.90;;
45863;SDS011;31579;52.354;16.974;2023-06-14T00:35:54;9.70;;;7.90;;
45863;SDS011;31579;52.354;16.974;2023-06-14T00:40:52;11.20;;;8.20;;
45863;SDS011;31579;52.354;16.974;2023-06-14T00:45:52;11.20;;;8.20;;
45863;SDS011;31579;52.354;16.974;2023-06-14T00:50:52;10.50;;;7.70;;
45863;SDS011;31579;52.354;16.974;2023-06-14T00:55:52;10.50;;;7.70;;
45863;SDS011;31579;52.354;16.974;2023-06-14T01:00:53;8.50;;;6.80;;
45863;SDS011;31579;52.354;16.974;2023-06-14T01:05:53;8.50;;;6.80;;
45863;SDS011;31579;52.354;16.974;2023-06-14T01:10:56;10.00;;;6.20;;
45863;SDS011;31579;52.354;16.974;2023-06-14T01:15:52;10.00;;;6.20;;
45863;SDS011;31579;52.354;16.974;2023-06-14T01:20:55;9.00;;;5.70;;
45863;SDS011;31579;52.354;16.974;2023-06-14T01:25:52;9.00;;;5.70;;
45863;SDS011;31579;52.354;16.974;2023-06-14T01:29:31;8.30;;;5.80;;
45863;SDS011;31579;52.354;16.974;2023-06-14T01:34:29;8.30;;;5.80;;
45863;SDS011;31579;52.354;16.974;2023-06-14T01:39:29;8.00;;;5.30;;
45863;SDS011;31579;52.354;16.974;2023-06-14T01:44:29;8.00;;;5.30;;
45863;SDS011;31579;52.354;16.974;2023-06-14T01:45:38;8.00;;;5.30;;
45863;SDS011;31579;52.354;16.974;2023-06-14T01:50:36;8.00;;;5.50;;
45863;SDS011;31579;52.354;16.974;2023-06-14T01:55:36;8.00;;;5.50;;
45863;SDS011;31579;52.354;16.974;2023-06-14T02:00:36;10.50;;;5.60;;
45863;SDS011;31579;52.354;16.974;2023-06-14T02:05:36;10.50;;;5.60;;
45863;SDS011;31579;52.354;16.974;2023-06-14T02:10:36;7.30;;;5.20;;
45863;SDS011;31579;52.354;16.974;2023-06-14T02:15:38;7.30;;;5.20;;
45863;SDS011;31579;52.354;16.974;2023-06-14T02:20:36;9.50;;;5.30;;
45863;SDS011;31579;52.354;16.974;2023-06-14T02:25:10;9.50;;;5.30;;
45863;SDS011;31579;52.354;16.974;2023-06-14T02:30:09;10.30;;;6.20;;
45863;SDS011;31579;52.354;16.974;2023-06-14T02:35:08;10.30;;;6.20;;
45863;SDS011;31579;52.354;16.974;2023-06-14T02:40:09;9.50;;;6.10;;
45863;SDS011;31579;52.354;16.974;2023-06-14T02:45:08;9.50;;;6.10;;
45863;SDS011;31579;52.354;16.974;2023-06-14T02:50:08;9.20;;;5.50;;
45863;SDS011;31579;52.354;16.974;2023-06-14T02:55:13;9.20;;;5.50;;
45863;SDS011;31579;52.354;16.974;2023-06-14T03:00:09;7.80;;;5.40;;
45863;SDS011;31579;52.354;16.974;2023-06-14T03:05:08;7.80;;;5.40;;
45863;SDS011;31579;52.354;16.974;2023-06-14T03:07:04;7.80;;;5.40;;
45863;SDS011;31579;52.354;16.974;2023-06-14T03:12:03;7.80;;;5.40;;
45863;SDS011;31579;52.354;16.974;2023-06-14T03:15:42;7.80;;;5.40;;
45863;SDS011;31579;52.354;16.974;2023-06-14T03:20:40;5.90;;;4.60;;
45863;SDS011;31579;52.354;16.974;2023-06-14T03:25:40;5.90;;;4.60;;
45863;SDS011;31579;52.354;16.974;2023-06-14T03:30:40;9.10;;;5.30;;
45863;SDS011;31579;52.354;16.974;2023-06-14T03:35:40;9.10;;;5.30;;
45863;SDS011;31579;52.354;16.974;2023-06-14T03:36:07;9.10;;;5.30;;
45863;SDS011;31579;52.354;16.974;2023-06-14T03:41:05;11.10;;;5.50;;
45863;SDS011;31579;52.354;16.974;2023-06-14T03:46:05;11.10;;;5.50;;
45863;SDS011;31579;52.354;16.974;2023-06-14T03:51:05;10.80;;;6.30;;
45863;SDS011;31579;52.354;16.974;2023-06-14T03:56:05;10.80;;;6.30;;
45863;SDS011;31579;52.354;16.974;2023-06-14T04:01:05;8.70;;;5.70;;
45863;SDS011;31579;52.354;16.974;2023-06-14T04:06:05;8.70;;;5.70;;
45863;SDS011;31579;52.354;16.974;2023-06-14T04:11:05;9.30;;;5.50;;
45863;SDS011;31579;52.354;16.974;2023-06-14T04:16:05;9.30;;;5.50;;
45863;SDS011;31579;52.354;16.974;2023-06-14T04:21:05;10.60;;;6.20;;
45863;SDS011;31579;52.354;16.974;2023-06-14T04:26:05;10.60;;;6.20;;
45863;SDS011;31579;52.354;16.974;2023-06-14T04:31:05;9.80;;;6.10;;
45863;SDS011;31579;52.354;16.974;2023-06-14T04:36:10;9.80;;;6.10;;
45863;SDS011;31579;52.354;16.974;2023-06-14T04:41:05;9.00;;;5.80;;
45863;SDS011;31579;52.354;16.974;2023-06-14T04:46:05;9.00;;;5.80;;
45863;SDS011;31579;52.354;16.974;2023-06-14T04:51:04;9.00;;;6.20;;
45863;SDS011;31579;52.354;16.974;2023-06-14T04:56:02;9.00;;;6.20;;
45863;SDS011;31579;52.354;16.974;2023-06-14T05:01:02;9.50;;;5.60;;
45863;SDS011;31579;52.354;16.974;2023-06-14T05:05:02;9.50;;;5.60;;
45863;SDS011;31579;52.354;16.974;2023-06-14T05:10:00;10.70;;;6.40;;
45863;SDS011;31579;52.354;16.974;2023-06-14T05:15:00;10.70;;;6.40;;
45863;SDS011;31579;52.354;16.974;2023-06-14T05:19:07;9.90;;;5.80;;
45863;SDS011;31579;52.354;16.974;2023-06-14T05:24:06;9.90;;;5.80;;
45863;SDS011;31579;52.354;16.974;2023-06-14T05:29:05;9.50;;;5.40;;
45863;SDS011;31579;52.354;16.974;2023-06-14T05:34:05;9.50;;;5.40;;
45863;SDS011;31579;52.354;16.974;2023-06-14T05:39:05;9.80;;;6.10;;
45863;SDS011;31579;52.354;16.974;2023-06-14T05:44:05;9.80;;;6.10;;
45863;SDS011;31579;52.354;16.974;2023-06-14T05:49:09;8.10;;;5.50;;
45863;SDS011;31579;52.354;16.974;2023-06-14T05:54:05;8.10;;;5.50;;
45863;SDS011;31579;52.354;16.974;2023-06-14T05:59:05;7.90;;;4.90;;
45863;SDS011;31579;52.354;16.974;2023-06-14T06:04:05;7.90;;;4.90;;
45863;SDS011;31579;52.354;16.974;2023-06-14T06:09:05;9.30;;;5.40;;
45863;SDS011;31579;52.354;16.974;2023-06-14T06:14:06;9.30;;;5.40;;
45863;SDS011;31579;52.354;16.974;2023-06-14T06:19:05;9.40;;;5.70;;
45863;SDS011;31579;52.354;16.974;2023-06-14T06:24:05;9.40;;;5.70;;
45863;SDS011;31579;52.354;16.974;2023-06-14T06:29:05;8.10;;;5.50;;
45863;SDS011;31579;52.354;16.974;2023-06-14T06:34:05;8.10;;;5.50;;
45863;SDS011;31579;52.354;16.974;2023-06-14T06:39:05;10.00;;;5.60;;
45863;SDS011;31579;52.354;16.974;2023-06-14T06:44:06;10.00;;;5.60;;
45863;SDS011;31579;52.354;16.974;2023-06-14T06:49:06;11.90;;;6.50;;
45863;SDS011;31579;52.354;16.974;2023-06-14T06:54:09;11.90;;;6.50;;
45863;SDS011;31579;52.354;16.974;2023-06-14T06:59:06;10.10;;;7.00;;
45863;SDS011;31579;52.354;16.974;2023-06-14T07:04:06;10.10;;;7.00;;
45863;SDS011;31579;52.354;16.974;2023-06-14T07:09:05;9.40;;;6.00;;
45863;SDS011;31579;52.354;16.974;2023-06-14T07:14:05;9.40;;;6.00;;
45863;SDS011;31579;52.354;16.974;2023-06-14T07:19:05;8.80;;;6.00;;
45863;SDS011;31579;52.354;16.974;2023-06-14T07:24:06;8.80;;;6.00;;
45863;SDS011;31579;52.354;16.974;2023-06-14T07:29:05;9.20;;;5.50;;
45863;SDS011;31579;52.354;16.974;2023-06-14T07:34:05;9.20;;;5.50;;
45863;SDS011;31579;52.354;16.974;2023-06-14T07:39:06;7.60;;;4.90;;
45863;SDS011;31579;52.354;16.974;2023-06-14T07:44:05;7.60;;;4.90;;
45863;SDS011;31579;52.354;16.974;2023-06-14T07:49:05;6.60;;;4.70;;
45863;SDS011;31579;52.354;16.974;2023-06-14T07:54:05;6.60;;;4.70;;
45863;SDS011;31579;52.354;16.974;2023-06-14T07:59:09;7.20;;;4.50;;
45863;SDS011;31579;52.354;16.974;2023-06-14T08:04:05;7.20;;;4.50;;
45863;SDS011;31579;52.354;16.974;2023-06-14T08:09:06;7.00;;;4.40;;
45863;SDS011;31579;52.354;16.974;2023-06-14T08:14:06;7.00;;;4.40;;
45863;SDS011;31579;52.354;16.974;2023-06-14T08:19:06;8.20;;;4.80;;
45863;SDS011;31579;52.354;16.974;2023-06-14T08:24:06;8.20;;;4.80;;
45863;SDS011;31579;52.354;16.974;2023-06-14T08:29:06;8.40;;;5.50;;
45863;SDS011;31579;52.354;16.974;2023-06-14T08:34:06;8.40;;;5.50;;
45863;SDS011;31579;52.354;16.974;2023-06-14T08:39:06;7.60;;;4.40;;
45863;SDS011;31579;52.354;16.974;2023-06-14T08:44:06;7.60;;;4.40;;
45863;SDS011;31579;52.354;16.974;2023-06-14T08:46:09;7.60;;;4.40;;
45863;SDS011;31579;52.354;16.974;2023-06-14T08:51:07;6.80;;;4.10;;
45863;SDS011;31579;52.354;16.974;2023-06-14T08:56:07;6.80;;;4.10;;
45863;SDS011;31579;52.354;16.974;2023-06-14T09:01:07;7.70;;;4.10;;
45863;SDS011;31579;52.354;16.974;2023-06-14T09:06:07;7.70;;;4.10;;
45863;SDS011;31579;52.354;16.974;2023-06-14T09:11:07;6.00;;;3.70;;
45863;SDS011;31579;52.354;16.974;2023-06-14T09:16:10;6.00;;;3.70;;
45863;SDS011;31579;52.354;16.974;2023-06-14T09:21:07;6.10;;;3.90;;
45863;SDS011;31579;52.354;16.974;2023-06-14T09:26:08;6.10;;;3.90;;
45863;SDS011;31579;52.354;16.974;2023-06-14T09:31:09;7.80;;;4.00;;
45863;SDS011;31579;52.354;16.974;2023-06-14T09:41:07;6.00;;;3.30;;
45863;SDS011;31579;52.354;16.974;2023-06-14T09:46:07;6.00;;;3.30;;
45863;SDS011;31579;52.354;16.974;2023-06-14T09:49:14;5.10;;;3.20;;
45863;SDS011;31579;52.354;16.974;2023-06-14T09:54:14;5.10;;;3.20;;
45863;SDS011;31579;52.354;16.974;2023-06-14T09:59:12;6.60;;;3.70;;
45863;SDS011;31579;52.354;16.974;2023-06-14T10:04:12;6.60;;;3.70;;
45863;SDS011;31579;52.354;16.974;2023-06-14T10:09:12;6.20;;;3.60;;
45863;SDS011;31579;52.354;16.974;2023-06-14T10:14:12;6.20;;;3.60;;
45863;SDS011;31579;52.354;16.974;2023-06-14T10:16:12;6.20;;;3.60;;
45863;SDS011;31579;52.354;16.974;2023-06-14T10:26:07;6.70;;;3.30;;
45863;SDS011;31579;52.354;16.974;2023-06-14T10:31:08;6.10;;;3.30;;
45863;SDS011;31579;52.354;16.974;2023-06-14T10:36:24;6.10;;;3.30;;
45863;SDS011;31579;52.354;16.974;2023-06-14T10:41:07;5.20;;;3.40;;
45863;SDS011;31579;52.354;16.974;2023-06-14T10:51:15;7.00;;;3.60;;
45863;SDS011;31579;52.354;16.974;2023-06-14T10:56:07;7.00;;;3.60;;
45863;SDS011;31579;52.354;16.974;2023-06-14T11:01:07;6.90;;;3.70;;
45863;SDS011;31579;52.354;16.974;2023-06-14T11:06:16;6.90;;;3.70;;
45863;SDS011;31579;52.354;16.974;2023-06-14T11:11:08;5.60;;;3.80;;
45863;SDS011;31579;52.354;16.974;2023-06-14T11:21:07;8.30;;;3.50;;
45863;SDS011;31579;52.354;16.974;2023-06-14T11:26:07;8.30;;;3.50;;
45863;SDS011;31579;52.354;16.974;2023-06-14T11:31:07;7.00;;;3.10;;
45863;SDS011;31579;52.354;16.974;2023-06-14T11:36:07;7.00;;;3.10;;
45863;SDS011;31579;52.354;16.974;2023-06-14T11:41:07;8.90;;;3.70;;
45863;SDS011;31579;52.354;16.974;2023-06-14T11:51:10;4.80;;;3.30;;
45863;SDS011;31579;52.354;16.974;2023-06-14T11:54:21;4.80;;;3.30;;
45863;SDS011;31579;52.354;16.974;2023-06-14T11:59:20;5.00;;;2.90;;
45863;SDS011;31579;52.354;16.974;2023-06-14T12:09:19;5.80;;;3.50;;
45863;SDS011;31579;52.354;16.974;2023-06-14T12:14:19;5.80;;;3.50;;
45863;SDS011;31579;52.354;16.974;2023-06-14T12:19:19;7.10;;;3.30;;
45863;SDS011;31579;52.354;16.974;2023-06-14T12:20:06;7.10;;;3.30;;
45863;SDS011;31579;52.354;16.974;2023-06-14T12:25:04;7.10;;;3.30;;
45863;SDS011;31579;52.354;16.974;2023-06-14T12:30:04;7.30;;;3.90;;
45863;SDS011;31579;52.354;16.974;2023-06-14T12:35:04;7.30;;;3.90;;
45863;SDS011;31579;52.354;16.974;2023-06-14T12:40:04;9.00;;;3.80;;
45863;SDS011;31579;52.354;16.974;2023-06-14T12:45:04;9.00;;;3.80;;
45863;SDS011;31579;52.354;16.974;2023-06-14T12:50:04;4.80;;;2.60;;
45863;SDS011;31579;52.354;16.974;2023-06-14T12:52:23;4.80;;;2.60;;
45863;SDS011;31579;52.354;16.974;2023-06-14T12:57:22;4.80;;;2.60;;
45863;SDS011;31579;52.354;16.974;2023-06-14T13:02:22;7.20;;;3.20;;
45863;SDS011;31579;52.354;16.974;2023-06-14T13:07:26;7.20;;;3.20;;
45863;SDS011;31579;52.354;16.974;2023-06-14T13:12:22;5.80;;;3.10;;
45863;SDS011;31579;52.354;16.974;2023-06-14T13:17:22;5.80;;;3.10;;
45863;SDS011;31579;52.354;16.974;2023-06-14T13:22:22;9.50;;;3.00;;
45863;SDS011;31579;52.354;16.974;2023-06-14T13:27:22;9.50;;;3.00;;
45863;SDS011;31579;52.354;16.974;2023-06-14T13:32:03;5.20;;;2.70;;
45863;SDS011;31579;52.354;16.974;2023-06-14T13:37:01;5.20;;;2.70;;
45863;SDS011;31579;52.354;16.974;2023-06-14T13:42:01;7.50;;;2.80;;
45863;SDS011;31579;52.354;16.974;2023-06-14T13:47:01;7.50;;;2.80;;
45863;SDS011;31579;52.354;16.974;2023-06-14T13:52:01;7.90;;;2.70;;
45863;SDS011;31579;52.354;16.974;2023-06-14T13:57:01;7.90;;;2.70;;
45863;SDS011;31579;52.354;16.974;2023-06-14T14:02:06;4.50;;;2.90;;
45863;SDS011;31579;52.354;16.974;2023-06-14T14:07:02;4.50;;;2.90;;
45863;SDS011;31579;52.354;16.974;2023-06-14T14:12:01;5.80;;;2.50;;
45863;SDS011;31579;52.354;16.974;2023-06-14T14:17:01;5.80;;;2.50;;
45863;SDS011;31579;52.354;16.974;2023-06-14T14:22:01;5.90;;;3.10;;
45863;SDS011;31579;52.354;16.974;2023-06-14T14:27:01;5.90;;;3.10;;
45863;SDS011;31579;52.354;16.974;2023-06-14T14:32:01;8.60;;;2.70;;
45863;SDS011;31579;52.354;16.974;2023-06-14T14:37:01;8.60;;;2.70;;
45863;SDS011;31579;52.354;16.974;2023-06-14T14:42:01;4.80;;;1.80;;
45863;SDS011;31579;52.354;16.974;2023-06-14T14:47:01;4.80;;;1.80;;
45863;SDS011;31579;52.354;16.974;2023-06-14T14:50:04;4.80;;;2.10;;
45863;SDS011;31579;52.354;16.974;2023-06-14T14:55:02;4.80;;;2.10;;
45863;SDS011;31579;52.354;16.974;2023-06-14T15:00:03;5.40;;;2.70;;
45863;SDS011;31579;52.354;16.974;2023-06-14T15:05:02;5.40;;;2.70;;
45863;SDS011;31579;52.354;16.974;2023-06-14T15:10:02;8.10;;;3.30;;
45863;SDS011;31579;52.354;16.974;2023-06-14T15:15:03;8.10;;;3.30;;
45863;SDS011;31579;52.354;16.974;2023-06-14T15:19:01;6.60;;;3.10;;
45863;SDS011;31579;52.354;16.974;2023-06-14T15:24:00;6.60;;;3.10;;
45863;SDS011;31579;52.354;16.974;2023-06-14T15:28:59;5.40;;;3.50;;
45863;SDS011;31579;52.354;16.974;2023-06-14T15:33:59;5.40;;;3.50;;
45863;SDS011;31579;52.354;16.974;2023-06-14T15:38:59;6.20;;;3.40;;
45863;SDS011;31579;52.354;16.974;2023-06-14T15:43:59;6.20;;;3.40;;
45863;SDS011;31579;52.354;16.974;2023-06-14T15:49:01;6.20;;;3.40;;
45863;SDS011;31579;52.354;16.974;2023-06-14T15:53:59;6.20;;;3.40;;
45863;SDS011;31579;52.354;16.974;2023-06-14T15:58:59;6.40;;;3.40;;
45863;SDS011;31579;52.354;16.974;2023-06-14T16:03:59;6.40;;;3.40;;
45863;SDS011;31579;52.354;16.974;2023-06-14T16:04:09;6.40;;;3.40;;
45863;SDS011;31579;52.354;16.974;2023-06-14T16:09:08;5.70;;;2.50;;
45863;SDS011;31579;52.354;16.974;2023-06-14T16:14:08;5.70;;;2.50;;
45863;SDS011;31579;52.354;16.974;2023-06-14T16:19:07;4.40;;;2.40;;
45863;SDS011;31579;52.354;16.974;2023-06-14T16:23:35;4.40;;;2.40;;
45863;SDS011;31579;52.354;16.974;2023-06-14T16:28:33;6.60;;;3.00;;
45863;SDS011;31579;52.354;16.974;2023-06-14T16:33:33;6.60;;;3.00;;
45863;SDS011;31579;52.354;16.974;2023-06-14T16:38:33;8.20;;;3.20;;
45863;SDS011;31579;52.354;16.974;2023-06-14T16:43:33;8.20;;;3.20;;
45863;SDS011;31579;52.354;16.974;2023-06-14T16:48:33;7.90;;;3.70;;
45863;SDS011;31579;52.354;16.974;2023-06-14T16:53:34;7.90;;;3.70;;
45863;SDS011;31579;52.354;16.974;2023-06-14T16:58:33;6.50;;;3.50;;
45863;SDS011;31579;52.354;16.974;2023-06-14T17:03:33;6.50;;;3.50;;
45863;SDS011;31579;52.354;16.974;2023-06-14T17:08:33;7.10;;;3.10;;
45863;SDS011;31579;52.354;16.974;2023-06-14T17:13:33;7.10;;;3.10;;
45863;SDS011;31579;52.354;16.974;2023-06-14T17:18:33;7.00;;;3.00;;
45863;SDS011;31579;52.354;16.974;2023-06-14T17:23:33;7.00;;;3.00;;
45863;SDS011;31579;52.354;16.974;2023-06-14T17:28:33;5.30;;;3.40;;
45863;SDS011;31579;52.354;16.974;2023-06-14T17:33:33;5.30;;;3.40;;
45863;SDS011;31579;52.354;16.974;2023-06-14T17:34:07;5.30;;;3.40;;
45863;SDS011;31579;52.354;16.974;2023-06-14T17:39:05;5.40;;;3.30;;
45863;SDS011;31579;52.354;16.974;2023-06-14T17:44:05;5.40;;;3.30;;
45863;SDS011;31579;52.354;16.974;2023-06-14T17:49:05;5.40;;;3.20;;
45863;SDS011;31579;52.354;16.974;2023-06-14T17:54:05;5.40;;;3.20;;
45863;SDS011;31579;52.354;16.974;2023-06-14T17:59:06;5.50;;;3.20;;
45863;SDS011;31579;52.354;16.974;2023-06-14T18:04:09;5.50;;;3.20;;
45863;SDS011;31579;52.354;16.974;2023-06-14T18:09:05;6.10;;;3.90;;
45863;SDS011;31579;52.354;16.974;2023-06-14T18:14:05;6.10;;;3.90;;
45863;SDS011;31579;52.354;16.974;2023-06-14T18:19:06;7.60;;;4.20;;
45863;SDS011;31579;52.354;16.974;2023-06-14T18:24:05;7.60;;;4.20;;
45863;SDS011;31579;52.354;16.974;2023-06-14T18:29:05;10.00;;;4.40;;
45863;SDS011;31579;52.354;16.974;2023-06-14T18:31:49;10.00;;;4.40;;
45863;SDS011;31579;52.354;16.974;2023-06-14T18:36:48;10.00;;;4.40;;
45863;SDS011;31579;52.354;16.974;2023-06-14T18:41:48;6.50;;;4.00;;
45863;SDS011;31579;52.354;16.974;2023-06-14T18:46:48;6.50;;;4.00;;
45863;SDS011;31579;52.354;16.974;2023-06-14T18:51:48;9.30;;;4.10;;
45863;SDS011;31579;52.354;16.974;2023-06-14T18:56:48;9.30;;;4.10;;
45863;SDS011;31579;52.354;16.974;2023-06-14T18:57:40;7.50;;;4.20;;
45863;SDS011;31579;52.354;16.974;2023-06-14T19:02:38;7.50;;;4.20;;
45863;SDS011;31579;52.354;16.974;2023-06-14T19:07:38;7.00;;;3.90;;
45863;SDS011;31579;52.354;16.974;2023-06-14T19:09:37;7.00;;;3.90;;
45863;SDS011;31579;52.354;16.974;2023-06-14T19:14:36;7.00;;;3.90;;
45863;SDS011;31579;52.354;16.974;2023-06-14T19:19:36;5.80;;;3.70;;
45863;SDS011;31579;52.354;16.974;2023-06-14T19:24:36;5.80;;;3.70;;
45863;SDS011;31579;52.354;16.974;2023-06-14T19:29:36;8.10;;;4.20;;
45863;SDS011;31579;52.354;16.974;2023-06-14T19:34:36;8.10;;;4.20;;
45863;SDS011;31579;52.354;16.974;2023-06-14T19:39:38;8.90;;;5.20;;
45863;SDS011;31579;52.354;16.974;2023-06-14T19:42:46;8.90;;;5.20;;
45863;SDS011;31579;52.354;16.974;2023-06-14T19:47:44;9.00;;;4.50;;
45863;SDS011;31579;52.354;16.974;2023-06-14T19:52:44;9.00;;;4.50;;
45863;SDS011;31579;52.354;16.974;2023-06-14T19:57:44;9.00;;;4.70;;
45863;SDS011;31579;52.354;16.974;2023-06-14T19:58:59;9.00;;;4.70;;
45863;SDS011;31579;52.354;16.974;2023-06-14T20:03:57;9.00;;;4.70;;
45863;SDS011;31579;52.354;16.974;2023-06-14T20:08:57;6.90;;;4.40;;
45863;SDS011;31579;52.354;16.974;2023-06-14T20:13:57;6.90;;;4.40;;
45863;SDS011;31579;52.354;16.974;2023-06-14T20:18:26;9.50;;;4.80;;
45863;SDS011;31579;52.354;16.974;2023-06-14T20:23:24;9.50;;;4.80;;
45863;SDS011;31579;52.354;16.974;2023-06-14T20:28:24;8.50;;;4.60;;
45863;SDS011;31579;52.354;16.974;2023-06-14T20:33:24;8.50;;;4.60;;
45863;SDS011;31579;52.354;16.974;2023-06-14T20:38:24;7.80;;;4.80;;
45863;SDS011;31579;52.354;16.974;2023-06-14T20:43:07;7.80;;;4.80;;
45863;SDS011;31579;52.354;16.974;2023-06-14T20:48:05;10.40;;;5.40;;
45863;SDS011;31579;52.354;16.974;2023-06-14T20:53:05;10.40;;;5.40;;
45863;SDS011;31579;52.354;16.974;2023-06-14T20:58:05;9.50;;;5.80;;
45863;SDS011;31579;52.354;16.974;2023-06-14T21:03:05;9.50;;;5.80;;
45863;SDS011;31579;52.354;16.974;2023-06-14T21:08:05;10.10;;;5.60;;
45863;SDS011;31579;52.354;16.974;2023-06-14T21:12:08;10.10;;;5.60;;
45863;SDS011;31579;52.354;16.974;2023-06-14T21:17:08;10.10;;;5.60;;
45863;SDS011;31579;52.354;16.974;2023-06-14T21:22:07;7.40;;;5.30;;
45863;SDS011;31579;52.354;16.974;2023-06-14T21:27:06;7.40;;;5.30;;
45863;SDS011;31579;52.354;16.974;2023-06-14T21:32:07;7.60;;;5.20;;
45863;SDS011;31579;52.354;16.974;2023-06-14T21:37:06;7.60;;;5.20;;
45863;SDS011;31579;52.354;16.974;2023-06-14T21:42:10;8.20;;;5.30;;
45863;SDS011;31579;52.354;16.974;2023-06-14T21:47:07;8.20;;;5.30;;
45863;SDS011;31579;52.354;16.974;2023-06-14T21:52:07;8.30;;;4.70;;
45863;SDS011;31579;52.354;16.974;2023-06-14T21:57:07;8.30;;;4.70;;
45863;SDS011;31579;52.354;16.974;2023-06-14T22:02:06;10.00;;;5.10;;
45863;SDS011;31579;52.354;16.974;2023-06-14T22:07:06;10.00;;;5.10;;
45863;SDS011;31579;52.354;16.974;2023-06-14T22:12:07;15.70;;;6.70;;
45863;SDS011;31579;52.354;16.974;2023-06-14T22:17:06;15.70;;;6.70;;
45863;SDS011;31579;52.354;16.974;2023-06-14T22:22:07;10.20;;;6.40;;
45863;SDS011;31579;52.354;16.974;2023-06-14T22:27:06;10.20;;;6.40;;
45863;SDS011;31579;52.354;16.974;2023-06-14T22:32:07;12.50;;;6.80;;
45863;SDS011;31579;52.354;16.974;2023-06-14T22:37:06;12.50;;;6.80;;
45863;SDS011;31579;52.354;16.974;2023-06-14T22:42:06;12.50;;;6.70;;
45863;SDS011;31579;52.354;16.974;2023-06-14T22:47:06;12.50;;;6.70;;
45863;SDS011;31579;52.354;16.974;2023-06-14T22:52:06;10.40;;;7.50;;
45863;SDS011;31579;52.354;16.974;2023-06-14T22:57:06;10.40;;;7.50;;
45863;SDS011;31579;52.354;16.974;2023-06-14T23:01:07;9.60;;;7.30;;
45863;SDS011;31579;52.354;16.974;2023-06-14T23:06:03;9.60;;;7.30;;
45863;SDS011;31579;52.354;16.974;2023-06-14T23:11:03;10.80;;;7.60;;
45863;SDS011;31579;52.354;16.974;2023-06-14T23:16:04;10.80;;;7.60;;
45863;SDS011;31579;52.354;16.974;2023-06-14T23:21:04;13.10;;;8.20;;
45863;SDS011;31579;52.354;16.974;2023-06-14T23:26:04;13.10;;;8.20;;
45863;SDS011;31579;52.354;16.974;2023-06-14T23:31:07;12.90;;;8.30;;
45863;SDS011;31579;52.354;16.974;2023-06-14T23:36:04;12.90;;;8.30;;
45863;SDS011;31579;52.354;16.974;2023-06-14T23:41:03;12.70;;;8.40;;
45863;SDS011;31579;52.354;16.974;2023-06-14T23:46:03;12.70;;;8.40;;
45863;SDS011;31579;52.354;16.974;2023-06-14T23:51:03;10.80;;;7.40;;
45863;SDS011;31579;52.354;16.974;2023-06-14T23:56:03;10.80;;;7.40;;
